• Join FlightAware (Why Join?)
  • Login
  • US Flag 
09:25PM EDT


 

Airport Tracker/Info


-or-


 

Live Flight TrackerFlight Track Log ✈ N376NG ✈ 05-May-2013 ✈ KSDF - KFAR

Flight Track Log - Related Links

Times and Time Zones

All times are in EDT time to prevent confusion due to time zone crossing. See the N376NG flight status page for this flight to view local times or setup timezone preferences in your user account.

Time Position Orientation Groundspeed Altitude Reporting Facility
EDT Latitude Longitude Course Direction KTS MPH feet Rate Location/Type
07:12AM 38.1333 -85.7667 332° Northwest 182 209 2,600  Level Louisville TRACON
07:14AM 38.1700 -85.8603 297° West 179 206 6,600 1,680 Climbing Indianapolis Center
07:15AM 38.2217 -85.8736 349° North 188 216 8,200 1,560 Climbing Indianapolis Center
07:16AM 38.2714 -85.8869 348° North 184 212 9,800 1,380 Climbing Indianapolis Center
07:17AM 38.2966 -85.7016 330° Northwest  Level FlightAware Approximate
07:17AM 38.3219 -85.9056 344° North 188 216 11,100  Level Indianapolis Center
07:18AM 38.3620 -85.7468 332° Northwest  Level FlightAware Approximate
07:19AM 38.3661 -85.9511 321° Northwest 203 234 12,400  Level Indianapolis Center
07:20AM 38.4103 -85.9983 320° Northwest 204 235 13,600 1,140 Climbing Indianapolis Center
07:21AM 38.4553 -86.0461 320° Northwest 209 241 14,800 1,140 Climbing Indianapolis Center
07:22AM 38.5111 -86.1047 321° Northwest 217 250 16,000 1,080 Climbing Indianapolis Center
07:23AM 38.5581 -86.1536 321° Northwest 218 251 17,000 900 Climbing Indianapolis Center
07:24AM 38.6056 -86.2044 320° Northwest 222 255 17,900 840 Climbing Indianapolis Center
07:25AM 38.6542 -86.2553 321° Northwest 225 259 18,800 900 Climbing Indianapolis Center
07:26AM 38.7039 -86.3086 320° Northwest 231 266 19,800 900 Climbing Indianapolis Center
07:27AM 38.7536 -86.3625 320° Northwest 233 268 20,700 840 Climbing Indianapolis Center
07:28AM 38.8053 -86.4164 321° Northwest 239 275 21,600 840 Climbing Indianapolis Center
07:29AM 38.8569 -86.4717 320° Northwest 241 277 22,500 780 Climbing Indianapolis Center
07:30AM 38.9044 -86.5236 320° Northwest 243 280 23,300 840 Climbing Indianapolis Center
07:31AM 38.9661 -86.5892 320° Northwest 241 277 24,300 720 Climbing Indianapolis Center
07:32AM 39.0119 -86.6372 321° Northwest 239 275 24,800 540 Climbing Indianapolis Center
07:33AM 39.0639 -86.6944 319° Northwest 245 282 25,500 600 Climbing Indianapolis Center
07:34AM 39.1169 -86.7519 320° Northwest 248 285 26,100 540 Climbing Indianapolis Center
07:35AM 39.1769 -86.8167 320° Northwest 252 290 26,700 420 Climbing Indianapolis Center
07:36AM 39.2325 -86.8775 320° Northwest 259 298 27,000 120 Climbing Indianapolis Center
07:37AM 39.2911 -86.9397 321° Northwest 271 312 27,000  Level Indianapolis Center
07:38AM 39.3542 -87.0089 320° Northwest 291 335 27,000  Level Indianapolis Center
07:39AM 39.4186 -87.0789 320° Northwest 300 345 27,000  Level Indianapolis Center
07:40AM 39.4839 -87.1506 320° Northwest 306 352 27,000  Level Indianapolis Center
07:41AM 39.5503 -87.2233 320° Northwest 310 357 27,000  Level Indianapolis Center
07:42AM 39.6156 -87.2953 320° Northwest 309 356 27,000  Level Indianapolis Center
07:43AM 39.6939 -87.3811 320° Northwest 307 353 27,000  Level Indianapolis Center
07:44AM 39.7594 -87.4542 319° Northwest 310 357 27,000  Level Indianapolis Center
07:45AM 39.8253 -87.5267 320° Northwest 310 357 27,000  Level Indianapolis Center
07:46AM 39.8900 -87.5994 319° Northwest 308 354 27,000  Level Indianapolis Center
07:47AM 39.9542 -87.6711 319° Northwest 305 351 27,000  Level Indianapolis Center
07:48AM 40.0181 -87.7422 320° Northwest 303 349 27,000  Level Indianapolis Center
07:49AM 40.0817 -87.8136 319° Northwest 303 349 27,000  Level Indianapolis Center
07:50AM 40.1456 -87.8853 319° Northwest 302 348 27,000  Level Indianapolis Center
07:51AM 40.2094 -87.9581 319° Northwest 304 350 27,000  Level Indianapolis Center
07:52AM 40.2728 -88.0294 319° Northwest 302 348 27,000  Level Indianapolis Center
07:53AM 40.3364 -88.1017 319° Northwest 303 349 27,000  Level Indianapolis Center
07:54AM 40.4128 -88.1867 320° Northwest 301 346 27,000  Level Indianapolis Center
07:55AM 40.4681 -88.2497 319° Northwest 304 350 27,000  Level Chicago Center
07:56AM 40.5308 -88.3214 319° Northwest 301 346 27,000  Level Chicago Center
07:57AM 40.6061 -88.4103 318° Northwest 302 348 27,000  Level Chicago Center
07:58AM 40.6703 -88.4808 320° Northwest 302 348 27,000  Level Chicago Center
07:59AM 40.7319 -88.5544 318° Northwest 300 345 27,000  Level Chicago Center
08:00AM 40.7947 -88.6258 319° Northwest 299 344 27,000  Level Chicago Center
08:01AM 40.8583 -88.6992 319° Northwest 303 349 27,000  Level Chicago Center
08:02AM 40.9217 -88.7711 319° Northwest 301 346 27,000  Level Chicago Center
08:03AM 40.9881 -88.8497 318° Northwest 299 344 27,000  Level Chicago Center
08:04AM 41.0458 -88.9153 319° Northwest 297 342 27,000  Level Chicago Center
08:05AM 41.1200 -89.0025 318° Northwest 298 343 27,000  Level Chicago Center
08:06AM 41.1817 -89.0744 319° Northwest 295 339 27,000  Level Chicago Center
08:07AM 41.2417 -89.1453 318° Northwest 290 334 27,000  Level Chicago Center
08:08AM 41.2942 -89.2075 318° Northwest 289 333 27,000  Level Chicago Center
08:09AM 41.3531 -89.2767 319° Northwest 285 328 27,000  Level Chicago Center
08:10AM 41.4236 -89.3603 318° Northwest 282 325 27,000  Level Chicago Center
08:11AM 41.4831 -89.4311 318° Northwest 285 328 27,000  Level Chicago Center
08:12AM 41.5383 -89.4964 319° Northwest 287 330 27,000  Level Chicago Center
08:14AM 41.6022 -89.5731 318° Northwest 288 331 27,000  Level Chicago Center
08:15AM 41.6617 -89.6422 319° Northwest 285 328 27,000  Level Chicago Center
08:16AM 41.7206 -89.7139 318° Northwest 286 329 27,000  Level Chicago Center
08:17AM 41.7797 -89.7847 318° Northwest 286 329 27,000  Level Chicago Center
08:18AM 41.8428 -89.8642 317° Northwest 279 321 27,000  Level Chicago Center
08:19AM 41.9064 -89.9361 320° Northwest 286 329 27,000  Level Chicago Center
08:20AM 41.9622 -90.0058 317° Northwest 279 321 27,000  Level Chicago Center
08:21AM 42.0200 -90.0753 318° Northwest 280 322 27,000  Level Chicago Center
08:22AM 42.0761 -90.1472 316° Northwest 282 325 27,000  Level Chicago Center
08:23AM 42.1339 -90.2178 318° Northwest 283 326 27,000  Level Chicago Center
08:24AM 42.1903 -90.2864 318° Northwest 278 320 27,000  Level Chicago Center
08:25AM 42.2478 -90.3583 317° Northwest 283 326 27,000  Level Chicago Center
08:26AM 42.3047 -90.4278 318° Northwest 279 321 27,000  Level Chicago Center
08:27AM 42.3731 -90.5125 318° Northwest 277 319 27,000  Level Chicago Center
08:28AM 42.4300 -90.5825 318° Northwest 279 321 27,000  Level Chicago Center
08:29AM 42.4867 -90.6531 317° Northwest 281 323 27,000  Level Chicago Center
08:30AM 42.5431 -90.7228 318° Northwest 277 319 27,000  Level Chicago Center
08:31AM 42.6000 -90.7931 318° Northwest 279 321 27,000  Level Chicago Center
08:32AM 42.6558 -90.8628 317° Northwest 278 320 27,000  Level Chicago Center
08:33AM 42.7125 -90.9339 317° Northwest 279 321 27,000  Level Chicago Center
08:34AM 42.7794 -91.0192 317° Northwest 279 321 27,000  Level Chicago Center
08:35AM 42.8367 -91.0903 318° Northwest 282 325 27,000  Level Chicago Center
08:36AM 42.8914 -91.1622 316° Northwest 277 319 27,000  Level Chicago Center
08:37AM 42.9481 -91.2333 317° Northwest 281 323 27,000  Level Chicago Center
08:38AM 43.0033 -91.3050 317° Northwest 279 321 27,000  Level Chicago Center
08:39AM 43.0606 -91.3761 318° Northwest 281 323 27,000  Level Chicago Center
08:40AM 43.1275 -91.4619 317° Northwest 280 322 27,000  Level Chicago Center
08:41AM 43.1939 -91.5464 317° Northwest 277 319 27,000  Level Minneapolis Center
08:42AM 43.2494 -91.6167 317° Northwest 276 318 27,000  Level Minneapolis Center
08:43AM 43.3028 -91.6869 316° Northwest 271 312 27,000  Level Minneapolis Center
08:44AM 43.3586 -91.7575 317° Northwest 274 315 27,000  Level Minneapolis Center
08:45AM 43.4122 -91.8297 316° Northwest 272 313 27,000  Level Minneapolis Center
08:46AM 43.4669 -91.8994 317° Northwest 271 312 27,000  Level Minneapolis Center
08:47AM 43.5217 -91.9700 317° Northwest 272 313 27,000  Level Minneapolis Center
08:48AM 43.5758 -92.0411 316° Northwest 271 312 27,000  Level Minneapolis Center
08:50AM 43.6519 -92.1403 317° Northwest 269 310 27,000  Level Minneapolis Center
08:51AM 43.7061 -92.2119 316° Northwest 270 311 27,000  Level Minneapolis Center
08:52AM 43.7608 -92.2839 316° Northwest 273 314 27,000  Level Minneapolis Center
08:53AM 43.8153 -92.3556 316° Northwest 272 313 27,000  Level Minneapolis Center
08:54AM 43.8675 -92.4283 315° West 268 308 27,000  Level Minneapolis Center
08:55AM 43.9233 -92.5003 317° Northwest 273 314 27,000  Level Minneapolis Center
08:56AM 43.9778 -92.5728 316° Northwest 273 314 27,000  Level Minneapolis Center
08:57AM 44.0319 -92.6453 316° Northwest 272 313 27,000  Level Minneapolis Center
08:58AM 44.0839 -92.7169 315° West 266 306 27,000  Level Minneapolis Center
08:59AM 44.1375 -92.7878 317° Northwest 267 307 27,000  Level Minneapolis Center
09:00AM 44.1919 -92.8592 317° Northwest 269 310 27,000  Level Minneapolis Center
09:01AM 44.2561 -92.9472 316° Northwest 270 311 27,000  Level Minneapolis Center
09:02AM 44.3086 -93.0178 316° Northwest 266 306 27,000  Level Minneapolis Center
09:03AM 44.3617 -93.0906 316° Northwest 267 307 27,000  Level Minneapolis Center
09:04AM 44.4156 -93.1636 316° Northwest 268 308 27,000  Level Minneapolis Center
09:05AM 44.4586 -93.2222 316° Northwest 271 312 27,000  Level Minneapolis Center
09:06AM 44.5233 -93.3094 316° Northwest 268 308 27,000  Level Minneapolis Center
09:07AM 44.5764 -93.3844 315° West 269 310 27,000  Level Minneapolis Center
09:08AM 44.6306 -93.4592 316° Northwest 271 312 27,000  Level Minneapolis Center
09:09AM 44.6853 -93.5333 316° Northwest 271 312 27,000  Level Minneapolis Center
09:10AM 44.7394 -93.6081 316° Northwest 272 313 27,000  Level Minneapolis Center
09:11AM 44.7928 -93.6833 315° West 271 312 27,000  Level Minneapolis Center
09:12AM 44.8467 -93.7578 316° Northwest 271 312 27,000  Level Minneapolis Center
09:13AM 44.9108 -93.8467 316° Northwest 270 311 27,000  Level Minneapolis Center
09:14AM 44.9650 -93.9214 316° Northwest 272 313 27,000  Level Minneapolis Center
09:15AM 45.0181 -93.9961 315° West 270 311 27,000  Level Minneapolis Center
09:16AM 45.0711 -94.0714 315° West 271 312 27,000  Level Minneapolis Center
09:17AM 45.1239 -94.1458 315° West 271 312 27,000  Level Minneapolis Center
09:18AM 45.1878 -94.2361 315° West 270 311 27,000  Level Minneapolis Center
09:19AM 45.2389 -94.3100 315° West 267 307 27,000  Level Minneapolis Center
09:20AM 45.2814 -94.3692 316° Northwest 266 306 27,000  Level Minneapolis Center
09:21AM 45.3442 -94.4600 315° West 268 308 27,000  Level Minneapolis Center
09:22AM 45.3967 -94.5347 315° West 268 308 27,000  Level Minneapolis Center
09:23AM 45.4500 -94.6117 315° West 272 313 27,000  Level Minneapolis Center
09:24AM 45.5028 -94.6878 315° West 273 314 27,000  Level Minneapolis Center
09:25AM 45.5561 -94.7639 315° West 271 312 27,000  Level Minneapolis Center
09:26AM 45.6086 -94.8403 315° West 271 312 27,000  Level Minneapolis Center
09:27AM 45.6711 -94.9317 314° West 268 308 27,000  Level Minneapolis Center
09:29AM 45.7233 -95.0083 314° West 269 310 27,000  Level Minneapolis Center
09:30AM 45.7850 -95.0972 315° West 273 314 27,000 -60 Level Minneapolis Center
09:31AM 45.8369 -95.1747 314° West 273 314 26,900 -660 Descending Minneapolis Center
09:32AM 45.8914 -95.2542 315° West 278 320 25,700 -1,200 Descending Minneapolis Center
09:33AM 45.9472 -95.3369 314° West 288 331 24,500 -840 Descending Minneapolis Center
09:34AM 46.0014 -95.4178 314° West 284 327 24,000 -480 Descending Minneapolis Center
09:35AM 46.0536 -95.4944 314° West 275 316 23,600 -960 Descending Minneapolis Center
09:36AM 46.1092 -95.5756 315° West 281 323 22,100 -1,500 Descending Minneapolis Center
09:37AM 46.1653 -95.6594 314° West 289 333 20,600 -1,500 Descending Minneapolis Center
09:38AM 46.2178 -95.7383 314° West 280 322 19,100 -1,500 Descending Minneapolis Center
09:39AM 46.2781 -95.8331 313° West 270 311 17,600 -1,560 Descending Minneapolis Center
09:40AM 46.3261 -95.9036 315° West 258 297 16,000 -1,740 Descending Minneapolis Center
09:41AM 46.3783 -95.9822 314° West 260 299 14,100 -1,920 Descending Minneapolis Center
09:42AM 46.4297 -96.0597 314° West 255 293 12,200 -1,800 Descending Minneapolis Center
09:43AM 46.4756 -96.1317 313° West 253 291 10,500 -1,800 Descending Minneapolis Center
09:44AM 46.5089 -96.2222 298° West 245 282 8,600 -1,860 Descending Minneapolis Center
09:45AM 46.5433 -96.3114 299° West 245 282 6,700 -1,800 Descending Minneapolis Center
09:46AM 46.5747 -96.3906 300° West 237 273 5,000 -1,680 Descending Minneapolis Center
09:47AM 46.6072 -96.4747 299° West 228 262 3,300 -1,020 Descending Minneapolis Center
09:48AM 46.6358 -96.5472 300° West 201 231 3,000 -180 Descending Minneapolis Center
09:49AM 46.6575 -96.6039 299° West 171 197 3,000 -60 Level Minneapolis Center
09:50AM 46.6800 -96.6642 299° West 163 188 2,900 -120 Descending Minneapolis Center
09:51AM 46.6994 -96.7247 295° West 170 196 2,800 -60 Descending Minneapolis Center
09:52AM 46.7253 -96.7861 302° West 171 197 2,800  Level Minneapolis Center
09:53AM 46.7700 -96.8169 335° Northwest 170 196 2,800  Level Minneapolis Center
09:54AM 46.8086 -96.8178 359° North 148 170 2,800 -300 Level Minneapolis Center
09:55AM 46.8406 -96.8175 360° North 118 136 2,300 -600 Descending Minneapolis Center
09:56AM 46.8711 -96.8169 North 107 123 1,700 -600 Descending Minneapolis Center
09:57AM 46.8961 -96.8161 North 98 113 1,200 -540 Descending Minneapolis Center